Time;durP1;ratioP1;P1;durP2;ratioP2;P2;SDS_P1;SDS_P2;PMS_P1;PMS_P2;Temp;Humidity;BMP_temperature;BMP_pressure;BME280_temperature;BME280_humidity;BME280_pressure;Samples;Min_cycle;Max_cycle;Signal;HPM_P1;HPM_P2
2022/07/09 00:00:27;;;;;;;4.30;1.50;;;;;;;17.62;100.00;98968.09;1695178;82;28243;-84
2022/07/09 00:02:54;;;;;;;7.35;1.40;;;;;;;17.63;100.00;98968.41;1658922;84;28189;-84
2022/07/09 00:05:23;;;;;;;5.20;1.55;;;;;;;17.59;100.00;98974.45;1662077;84;43100;-84
2022/07/09 00:07:50;;;;;;;3.72;1.35;;;;;;;17.51;100.00;98975.64;1697681;82;28021;-84
2022/07/09 00:10:19;;;;;;;2.55;1.20;;;;;;;17.51;100.00;98971.67;1695412;82;28478;-84
2022/07/09 00:12:45;;;;;;;6.97;1.60;;;;;;;17.55;100.00;98971.73;1695682;83;28106;-84
2022/07/09 00:15:12;;;;;;;4.10;1.45;;;;;;;17.55;100.00;98969.92;1688609;82;28246;-84
2022/07/09 00:17:40;;;;;;;5.47;1.60;;;;;;;17.56;100.00;98967.60;1691315;83;28061;-86
2022/07/09 00:20:09;;;;;;;3.85;1.30;;;;;;;17.53;100.00;98971.02;1682712;83;28218;-86
2022/07/09 00:22:37;;;;;;;3.17;1.55;;;;;;;17.54;100.00;98968.73;1684868;83;28113;-84
2022/07/09 00:25:04;;;;;;;4.37;1.32;;;;;;;17.54;100.00;98972.70;1685399;83;28029;-84
2022/07/09 00:27:30;;;;;;;2.95;1.55;;;;;;;17.54;100.00;98964.77;1678596;83;28199;-84
2022/07/09 00:29:56;;;;;;;2.12;1.37;;;;;;;17.53;100.00;98962.59;1672796;83;28087;-84
2022/07/09 00:32:23;;;;;;;1.80;1.45;;;;;;;17.53;100.00;98962.59;1673917;83;28072;-84
2022/07/09 00:34:56;;;;;;;3.27;1.40;;;;;;;17.53;100.00;98960.44;1684009;83;28050;-85
2022/07/09 00:37:29;;;;;;;5.55;1.40;;;;;;;17.55;100.00;98955.85;1674586;83;28004;-85
2022/07/09 00:39:55;;;;;;;3.90;1.10;;;;;;;17.54;100.00;98955.50;1681237;83;28131;-85
2022/07/09 00:42:21;;;;;;;4.17;1.67;;;;;;;17.51;100.00;98950.49;1670311;83;28044;-86
2022/07/09 00:44:47;;;;;;;5.37;1.40;;;;;;;17.49;100.00;98959.05;1681222;83;28079;-85
2022/07/09 00:47:14;;;;;;;9.05;1.75;;;;;;;17.42;100.00;98958.75;1677548;83;28113;-85
2022/07/09 00:49:43;;;;;;;4.87;1.57;;;;;;;17.38;100.00;98953.88;1679302;84;28095;-85
2022/07/09 00:52:17;;;;;;;4.10;1.62;;;;;;;17.33;100.00;98959.59;1676935;83;28141;-85
2022/07/09 00:54:45;;;;;;;4.83;1.52;;;;;;;17.34;100.00;98956.45;1675247;83;28166;-85
2022/07/09 00:57:12;;;;;;;7.10;1.85;;;;;;;17.30;100.00;98954.55;1651506;84;28178;-85
2022/07/09 00:59:40;;;;;;;4.95;1.70;;;;;;;17.30;100.00;98952.39;1678733;83;28104;-85
2022/07/09 01:02:10;;;;;;;4.40;1.30;;;;;;;17.35;100.00;98954.13;1675565;83;28163;-85
2022/07/09 01:04:37;;;;;;;7.47;1.87;;;;;;;17.36;100.00;98951.84;1677316;83;28078;-85
2022/07/09 01:07:07;;;;;;;5.17;2.58;;;;;;;17.28;100.00;98953.03;1639689;85;28062;-85
2022/07/09 01:09:34;;;;;;;2.45;1.30;;;;;;;17.25;100.00;98952.80;1639133;85;28054;-86
2022/07/09 01:12:01;;;;;;;5.35;1.60;;;;;;;17.21;100.00;98950.57;1648843;85;28007;-85
2022/07/09 01:14:28;;;;;;;4.55;1.30;;;;;;;17.19;100.00;98953.83;1647340;85;28091;-86
2022/07/09 01:17:01;;;;;;;7.67;1.85;;;;;;;17.15;100.00;98950.14;1650714;83;28133;-85
2022/07/09 01:19:33;;;;;;;2.03;1.30;;;;;;;17.18;100.00;98952.18;1641581;85;42195;-86
2022/07/09 01:22:00;;;;;;;3.25;1.62;;;;;;;17.20;100.00;98947.09;1670418;84;28434;-85
2022/07/09 01:24:27;;;;;;;3.87;1.50;;;;;;;17.20;100.00;98952.38;1679537;83;28114;-86
2022/07/09 01:26:54;;;;;;;4.67;1.37;;;;;;;17.20;100.00;98950.22;1641955;85;28187;-85
2022/07/09 01:29:22;;;;;;;2.22;1.27;;;;;;;17.16;100.00;98949.66;1617947;86;28097;-85
2022/07/09 01:31:50;;;;;;;2.83;1.50;;;;;;;17.15;100.00;98943.53;1677572;83;28083;-85
2022/07/09 01:34:22;;;;;;;4.03;1.45;;;;;;;17.14;100.00;98944.50;1675179;83;28481;-85
2022/07/09 01:36:46;;;;;;;3.27;1.50;;;;;;;17.10;100.00;98941.78;1679020;84;28147;-85
2022/07/09 01:39:18;;;;;;;5.78;1.60;;;;;;;17.06;100.00;98937.75;1679318;83;28503;-85
2022/07/09 01:41:44;;;;;;;4.33;1.60;;;;;;;17.02;100.00;98937.64;1676605;83;28177;-86
2022/07/09 01:44:22;;;;;;;2.87;1.50;;;;;;;16.95;100.00;98936.53;1681748;83;42215;-85
2022/07/09 01:46:48;;;;;;;6.97;1.30;;;;;;;16.92;100.00;98938.59;1632300;85;28123;-86
2022/07/09 01:49:16;;;;;;;3.95;1.57;;;;;;;16.89;100.00;98938.39;1681645;84;42327;-85
2022/07/09 01:51:44;;;;;;;3.05;1.27;;;;;;;16.82;100.00;98930.63;1672980;83;28085;-86
2022/07/09 01:54:10;;;;;;;2.67;1.75;;;;;;;16.81;100.00;98930.76;1675716;83;28172;-86
2022/07/09 01:56:36;;;;;;;5.00;2.02;;;;;;;16.78;100.00;98933.20;1681724;83;28087;-86
2022/07/09 01:59:03;;;;;;;3.20;1.20;;;;;;;16.75;100.00;98934.77;1685095;83;28026;-86
2022/07/09 02:01:33;;;;;;;2.08;1.37;;;;;;;16.67;100.00;98931.49;1640245;85;28101;-86
2022/07/09 02:04:00;;;;;;;6.10;1.70;;;;;;;16.54;100.00;98904.89;1617739;86;28043;-86
2022/07/09 02:06:27;;;;;;;4.20;1.20;;;;;;;16.54;100.00;98904.89;1613698;86;43440;-86
2022/07/09 02:08:54;;;;;;;5.00;1.60;;;;;;;16.64;100.00;98915.05;1619449;86;28116;-85
2022/07/09 02:11:23;;;;;;;3.17;1.57;;;;;;;16.65;100.00;98922.01;1654239;85;28129;-85
2022/07/09 02:13:51;;;;;;;8.00;1.80;;;;;;;16.64;100.00;98925.62;1644281;85;28109;-85
2022/07/09 02:16:17;;;;;;;4.08;1.77;;;;;;;16.63;100.00;98923.97;1648000;84;28115;-85
2022/07/09 02:18:44;;;;;;;4.28;1.62;;;;;;;16.61;100.00;98916.65;1656282;84;28026;-85
2022/07/09 02:21:10;;;;;;;4.95;1.90;;;;;;;16.58;100.00;98913.73;1657232;84;28094;-84
2022/07/09 02:23:36;;;;;;;4.97;1.80;;;;;;;16.56;100.00;98912.22;1660420;84;28126;-85
2022/07/09 02:26:03;;;;;;;5.53;1.80;;;;;;;16.51;100.00;98909.14;1638878;86;28028;-85
2022/07/09 02:28:33;;;;;;;4.53;1.67;;;;;;;16.48;100.00;98911.55;1634418;86;28469;-85
2022/07/09 02:31:00;;;;;;;4.00;1.50;;;;;;;16.47;100.00;98909.06;1654761;84;28086;-85
2022/07/09 02:33:28;;;;;;;4.28;1.80;;;;;;;16.45;100.00;98910.98;1632528;85;28103;-85
2022/07/09 02:35:57;;;;;;;5.25;1.65;;;;;;;16.42;100.00;98909.43;1672965;84;28015;-84
2022/07/09 02:38:30;;;;;;;6.25;1.55;;;;;;;16.38;100.00;98909.34;1671225;84;28142;-85
2022/07/09 02:40:56;;;;;;;3.60;1.52;;;;;;;16.35;100.00;98911.42;1669813;84;28197;-84
2022/07/09 02:43:28;;;;;;;3.90;1.50;;;;;;;16.29;100.00;98910.98;1696831;82;28075;-84
2022/07/09 02:45:55;;;;;;;3.65;1.40;;;;;;;16.28;100.00;98911.95;1703739;82;28087;-84
2022/07/09 02:48:22;;;;;;;4.42;1.60;;;;;;;16.27;100.00;98909.43;1700212;82;28005;-84
2022/07/09 02:50:52;;;;;;;3.15;1.80;;;;;;;16.24;100.00;98905.75;1696814;82;28103;-84
2022/07/09 02:53:22;;;;;;;5.55;1.55;;;;;;;16.21;100.00;98901.55;1693466;82;28103;-84
2022/07/09 02:55:49;;;;;;;6.25;1.40;;;;;;;16.20;100.00;98906.98;1657185;84;28133;-85
2022/07/09 02:58:18;;;;;;;3.90;1.55;;;;;;;16.17;100.00;98904.59;1658520;84;28125;-84
2022/07/09 03:00:47;;;;;;;5.45;1.40;;;;;;;16.16;100.00;98914.31;1657530;84;28093;-85
2022/07/09 03:03:13;;;;;;;2.08;1.30;;;;;;;16.13;100.00;98907.98;1638088;85;28164;-85
2022/07/09 03:05:39;;;;;;;5.65;1.45;;;;;;;16.10;100.00;98903.42;1655972;84;28074;-85
2022/07/09 03:08:08;;;;;;;5.53;1.37;;;;;;;16.05;100.00;98899.86;1657770;84;28143;-85
2022/07/09 03:10:35;;;;;;;3.60;1.20;;;;;;;16.03;100.00;98899.66;1633324;85;28293;-85
2022/07/09 03:13:01;;;;;;;5.78;1.50;;;;;;;16.00;100.00;98896.77;1658252;84;28139;-85
2022/07/09 03:15:28;;;;;;;7.40;1.75;;;;;;;16.01;100.00;98897.61;1660624;84;28078;-85
2022/07/09 03:17:54;;;;;;;4.62;1.20;;;;;;;15.98;100.00;98893.45;1636254;84;28011;-85
2022/07/09 03:20:20;;;;;;;2.52;1.35;;;;;;;16.00;100.00;98893.30;1633104;86;28096;-85
2022/07/09 03:22:46;;;;;;;5.55;1.70;;;;;;;16.00;100.00;98895.45;1630506;85;28170;-85
2022/07/09 03:25:12;;;;;;;5.03;1.45;;;;;;;16.00;100.00;98894.61;1631445;85;28142;-84
2022/07/09 03:27:38;;;;;;;3.83;1.30;;;;;;;16.02;100.00;98897.49;1635468;86;28054;-85
2022/07/09 03:30:06;;;;;;;3.02;1.17;;;;;;;16.08;100.00;98897.45;1632371;86;28005;-85
2022/07/09 03:32:33;;;;;;;5.22;1.90;;;;;;;16.13;100.00;98900.55;1630288;86;28093;-85
2022/07/09 03:35:00;;;;;;;5.03;1.25;;;;;;;16.17;100.00;98894.86;1634047;86;28054;-85
2022/07/09 03:37:26;;;;;;;4.25;1.32;;;;;;;16.20;100.00;98890.63;1631275;86;28206;-85
2022/07/09 03:39:52;;;;;;;2.65;1.30;;;;;;;16.26;100.00;98889.27;1633723;85;28106;-85
2022/07/09 03:42:27;;;;;;;4.58;2.12;;;;;;;16.28;100.00;98896.10;1655449;83;45862;-86
2022/07/09 03:44:53;;;;;;;6.15;1.47;;;;;;;16.36;100.00;98893.30;1654146;84;28120;-85
2022/07/09 03:47:21;;;;;;;4.67;2.15;;;;;;;16.44;100.00;98892.13;1655646;85;28042;-86
2022/07/09 03:49:49;;;;;;;5.15;1.55;;;;;;;16.45;100.00;98888.05;1656119;84;28127;-86
2022/07/09 03:52:18;;;;;;;3.98;1.60;;;;;;;16.41;100.00;98878.72;1658409;84;28095;-85
2022/07/09 03:54:45;;;;;;;3.17;1.05;;;;;;;16.53;100.00;98891.36;1657564;85;28075;-86
2022/07/09 03:57:17;;;;;;;3.60;1.47;;;;;;;16.62;100.00;98884.81;1653635;84;28057;-86
2022/07/09 03:59:43;;;;;;;6.28;1.60;;;;;;;16.81;100.00;98887.98;1654903;84;28034;-84
2022/07/09 04:02:10;;;;;;;5.92;1.52;;;;;;;16.97;100.00;98882.17;1658707;84;28212;-85
2022/07/09 04:04:35;;;;;;;5.83;1.30;;;;;;;17.09;100.00;98879.27;1655391;84;28113;-85
2022/07/09 04:07:04;;;;;;;5.08;1.17;;;;;;;17.31;100.00;98883.96;1655462;84;42629;-86
2022/07/09 04:09:40;;;;;;;4.97;1.47;;;;;;;17.47;100.00;98881.11;1657216;84;28034;-86
2022/07/09 04:12:07;;;;;;;4.72;1.50;;;;;;;17.66;100.00;98882.95;1659695;84;28276;-85
2022/07/09 04:14:39;;;;;;;6.28;1.65;;;;;;;17.84;100.00;98878.59;1656101;84;28172;-85
2022/07/09 04:17:11;;;;;;;3.80;1.50;;;;;;;18.00;100.00;98881.17;1671775;83;28092;-85
2022/07/09 04:19:39;;;;;;;2.87;1.30;;;;;;;18.17;100.00;98881.23;1668614;83;28118;-86
2022/07/09 04:22:11;;;;;;;4.35;1.72;;;;;;;18.34;100.00;98876.52;1701634;83;28443;-85
2022/07/09 04:24:41;;;;;;;4.62;1.62;;;;;;;18.42;100.00;98881.59;1690765;83;28090;-85
2022/07/09 04:27:07;;;;;;;5.70;1.45;;;;;;;18.43;100.00;98883.27;1692664;82;28152;-85
2022/07/09 04:29:33;;;;;;;4.40;2.08;;;;;;;18.31;100.00;98885.25;1694758;83;28091;-85
2022/07/09 04:31:59;;;;;;;5.72;1.55;;;;;;;18.19;100.00;98886.41;1694640;83;28085;-85
2022/07/09 04:34:31;;;;;;;1.90;1.32;;;;;;;18.08;100.00;98887.89;1693945;82;28228;-85
2022/07/09 04:36:57;;;;;;;4.33;1.15;;;;;;;17.97;100.00;98889.73;1691289;83;28178;-85
2022/07/09 04:39:24;;;;;;;4.47;1.32;;;;;;;17.88;100.00;98894.57;1692933;83;28278;-85
2022/07/09 04:41:51;;;;;;;3.77;1.45;;;;;;;17.78;100.00;98887.62;1667790;83;28071;-84
2022/07/09 04:44:17;;;;;;;5.87;2.12;;;;;;;17.65;100.00;98887.90;1697036;83;28112;-85
2022/07/09 04:46:52;;;;;;;4.92;1.20;;;;;;;17.52;100.00;98892.59;1697007;83;28016;-84
2022/07/09 04:49:20;;;;;;;3.67;1.57;;;;;;;17.39;100.00;98889.41;1696287;83;28167;-85
2022/07/09 04:51:46;;;;;;;3.47;1.32;;;;;;;17.32;100.00;98891.77;1692900;83;28146;-85
2022/07/09 04:54:13;;;;;;;6.28;1.72;;;;;;;17.27;100.00;98894.48;1695449;83;28090;-85
2022/07/09 04:56:48;;;;;;;2.22;1.72;;;;;;;17.17;100.00;98892.31;1690650;82;28176;-85
2022/07/09 04:59:14;;;;;;;5.78;1.37;;;;;;;17.02;100.00;98898.48;1692432;83;28116;-86
2022/07/09 05:01:40;;;;;;;7.87;1.70;;;;;;;16.93;100.00;98894.84;1697482;83;28171;-86
2022/07/09 05:04:07;;;;;;;3.92;1.40;;;;;;;16.92;100.00;98898.93;1702179;83;28063;-85
2022/07/09 05:06:33;;;;;;;4.33;1.57;;;;;;;16.84;100.00;98890.86;1690444;83;28165;-85
2022/07/09 05:09:00;;;;;;;5.90;1.60;;;;;;;16.84;100.00;98892.17;1690795;83;28078;-84
2022/07/09 05:11:26;;;;;;;4.30;1.30;;;;;;;16.88;100.00;98893.09;1694642;83;28126;-84
2022/07/09 05:13:52;;;;;;;6.92;1.70;;;;;;;16.88;100.00;98895.73;1691047;83;28060;-85
2022/07/09 05:16:18;;;;;;;3.70;1.47;;;;;;;16.84;100.00;98893.50;1694357;83;28083;-84
2022/07/09 05:18:44;;;;;;;6.12;1.52;;;;;;;16.79;100.00;98891.27;1697648;83;28051;-85
2022/07/09 05:21:10;;;;;;;4.15;1.72;;;;;;;16.80;100.00;98895.55;1690972;82;28000;-84
2022/07/09 05:23:37;;;;;;;2.87;1.55;;;;;;;16.81;100.00;98891.11;1703925;82;28091;-84
2022/07/09 05:26:05;;;;;;;3.12;1.57;;;;;;;16.85;100.00;98884.12;1693672;82;28105;-85
2022/07/09 05:28:33;;;;;;;4.67;1.42;;;;;;;16.97;100.00;98883.48;1697716;83;28071;-85
2022/07/09 05:31:00;;;;;;;3.25;1.70;;;;;;;17.09;100.00;98877.11;1694040;83;28059;-84
2022/07/09 05:33:26;;;;;;;4.58;1.40;;;;;;;17.18;100.00;98872.83;1649028;85;28172;-84
2022/07/09 05:35:53;;;;;;;2.17;1.15;;;;;;;17.26;100.00;98868.98;1692601;82;28035;-84
2022/07/09 05:38:25;;;;;;;2.75;1.20;;;;;;;17.34;100.00;98874.44;1704039;82;28132;-84
2022/07/09 05:40:51;;;;;;;2.05;1.25;;;;;;;17.39;100.00;98874.38;1693612;82;28087;-84
2022/07/09 05:43:17;;;;;;;3.98;1.27;;;;;;;17.45;100.00;98874.30;1699495;83;28101;-84
2022/07/09 05:45:43;;;;;;;2.30;1.25;;;;;;;17.48;100.00;98876.17;1687712;83;28161;-84
2022/07/09 05:48:09;;;;;;;3.50;1.20;;;;;;;17.48;100.00;98869.55;1708619;83;42235;-84
2022/07/09 05:50:35;;;;;;;3.77;1.30;;;;;;;17.48;100.00;98870.04;1698968;83;28138;-84
2022/07/09 05:53:01;;;;;;;1.98;1.15;;;;;;;17.47;100.00;98865.23;1651501;84;42216;-85
2022/07/09 05:55:28;;;;;;;4.37;1.22;;;;;;;17.44;100.00;98862.88;1692821;83;28083;-84
2022/07/09 05:57:59;;;;;;;4.65;1.00;;;;;;;17.41;100.00;98868.92;1699693;82;28442;-84
2022/07/09 06:00:28;;;;;;;3.02;1.25;;;;;;;17.32;100.00;98870.60;1698418;81;28189;-85
2022/07/09 06:03:01;;;;;;;2.95;1.20;;;;;;;17.33;100.00;98866.15;1694557;83;28444;-85
2022/07/09 06:05:28;;;;;;;3.08;1.42;;;;;;;17.39;100.00;98868.24;1647388;84;28086;-85
2022/07/09 06:08:01;;;;;;;3.47;1.45;;;;;;;17.50;100.00;98868.10;1692336;81;28092;-85
2022/07/09 06:10:27;;;;;;;2.67;1.07;;;;;;;17.55;100.00;98869.84;1687313;83;28197;-85
2022/07/09 06:12:54;;;;;;;3.90;1.20;;;;;;;17.58;100.00;98870.38;1665236;84;42283;-85
2022/07/09 06:15:20;;;;;;;3.83;1.37;;;;;;;17.63;100.00;98873.12;1696036;82;28051;-85
2022/07/09 06:17:46;;;;;;;2.27;0.98;;;;;;;17.66;100.00;98865.75;1706217;81;42202;-85
2022/07/09 06:20:12;;;;;;;2.77;1.10;;;;;;;17.70;100.00;98862.32;1691345;83;28152;-85
2022/07/09 06:22:38;;;;;;;2.17;1.07;;;;;;;17.72;100.00;98858.58;1694505;81;28063;-85
2022/07/09 06:25:09;;;;;;;2.87;1.20;;;;;;;17.76;100.00;98858.63;1704385;83;28097;-85
2022/07/09 06:27:35;;;;;;;1.67;0.93;;;;;;;17.84;100.00;98864.03;1649685;83;32123;-85
2022/07/09 06:30:07;;;;;;;4.12;1.32;;;;;;;17.90;100.00;98859.49;1648271;84;28155;-83
2022/07/09 06:32:42;;;;;;;4.30;1.20;;;;;;;18.00;100.00;98858.66;1652288;83;28098;-84
2022/07/09 06:35:08;;;;;;;3.08;1.35;;;;;;;18.06;100.00;98857.57;1659286;83;28444;-85
2022/07/09 06:37:35;;;;;;;2.33;1.00;;;;;;;18.10;100.00;98858.98;1696083;82;28174;-85
2022/07/09 06:40:01;;;;;;;2.08;1.00;;;;;;;18.19;100.00;98860.75;1697911;82;28462;-85
2022/07/09 06:42:27;;;;;;;2.02;0.82;;;;;;;18.28;100.00;98855.89;1691837;82;28065;-84
2022/07/09 06:44:55;;;;;;;3.30;1.30;;;;;;;18.37;100.00;98856.86;1691722;83;28169;-85
2022/07/09 06:47:21;;;;;;;2.22;1.47;;;;;;;18.45;100.00;98856.11;1696522;83;28091;-85
2022/07/09 06:49:52;;;;;;;5.28;1.47;;;;;;;18.49;100.00;98850.39;1672809;84;28106;-85
2022/07/09 06:52:20;;;;;;;3.62;1.37;;;;;;;18.55;100.00;98847.16;1694114;82;28135;-85
2022/07/09 06:54:46;;;;;;;5.33;2.15;;;;;;;18.62;100.00;98843.43;1700956;83;28159;-85
2022/07/09 06:57:16;;;;;;;3.35;1.27;;;;;;;18.74;100.00;98848.39;1647567;84;28091;-86
2022/07/09 06:59:42;;;;;;;3.95;1.30;;;;;;;18.79;100.00;98843.48;1655948;84;28062;-86
2022/07/09 07:02:10;;;;;;;3.00;1.12;;;;;;;18.78;100.00;98847.11;1625699;86;28073;-86
2022/07/09 07:04:36;;;;;;;3.05;1.30;;;;;;;18.82;100.00;98849.48;1700129;82;28107;-86
2022/07/09 07:07:04;;;;;;;1.95;0.80;;;;;;;18.85;100.00;98846.52;1698231;82;28004;-86
2022/07/09 07:09:32;;;;;;;2.10;0.80;;;;;;;18.90;100.00;98846.41;1693632;82;28170;-86
2022/07/09 07:11:58;;;;;;;1.67;0.90;;;;;;;18.97;100.00;98843.52;1699454;83;28074;-86
2022/07/09 07:14:24;;;;;;;2.52;1.05;;;;;;;19.12;100.00;98845.98;1693198;83;28075;-86
2022/07/09 07:16:52;;;;;;;2.80;1.00;;;;;;;19.25;100.00;98841.64;1703260;83;28118;-86
2022/07/09 07:19:22;;;;;;;1.65;0.98;;;;;;;19.39;100.00;98841.09;1687985;83;28068;-86
2022/07/09 07:21:49;;;;;;;3.15;1.10;;;;;;;19.51;100.00;98838.58;1687683;83;28057;-86
2022/07/09 07:24:15;;;;;;;2.22;1.00;;;;;;;19.63;100.00;98841.83;1678250;83;28075;-86
2022/07/09 07:26:42;;;;;;;2.62;1.30;;;;;;;19.71;100.00;98835.23;1676146;83;28191;-87
2022/07/09 07:29:08;;;;;;;2.27;1.05;;;;;;;19.87;100.00;98838.49;1674414;83;28183;-86
2022/07/09 07:31:34;;;;;;;4.08;1.30;;;;;;;19.98;100.00;98839.06;1678095;83;28040;-86
2022/07/09 07:34:00;;;;;;;5.08;1.17;;;;;;;20.08;100.00;98832.31;1668230;83;28116;-86
2022/07/09 07:36:27;;;;;;;2.62;0.98;;;;;;;20.18;100.00;98826.42;1686111;83;28085;-86
2022/07/09 07:38:56;;;;;;;2.05;0.90;;;;;;;20.30;100.00;98829.11;1645092;85;28105;-87
2022/07/09 07:41:26;;;;;;;2.60;0.82;;;;;;;20.25;100.00;98826.09;1638240;85;28082;-86
2022/07/09 07:43:52;;;;;;;3.08;0.80;;;;;;;20.12;100.00;98831.03;1637730;85;28166;-86
2022/07/09 07:46:19;;;;;;;4.08;0.90;;;;;;;20.01;100.00;98827.31;1678525;83;28157;-87
2022/07/09 07:48:45;;;;;;;1.92;0.80;;;;;;;19.99;100.00;98822.64;1677546;83;28024;-87
2022/07/09 07:51:11;;;;;;;3.62;1.07;;;;;;;20.06;100.00;98819.70;1640551;85;28160;-86
2022/07/09 07:53:37;;;;;;;1.77;0.72;;;;;;;20.19;100.00;98816.59;1675915;83;28115;-86
2022/07/09 07:56:05;;;;;;;1.75;0.90;;;;;;;20.25;100.00;98819.45;1679702;84;27989;-87
2022/07/09 07:58:32;;;;;;;2.42;0.90;;;;;;;20.30;100.00;98813.66;1681757;83;28081;-87
2022/07/09 08:00:58;;;;;;;1.77;0.80;;;;;;;20.14;100.00;98812.25;1677672;83;28093;-87
2022/07/09 08:03:25;;;;;;;2.37;0.80;;;;;;;20.05;100.00;98811.38;1677037;83;28025;-87
2022/07/09 08:05:51;;;;;;;2.15;0.68;;;;;;;20.18;100.00;98802.98;1677722;83;28076;-87
2022/07/09 08:08:21;;;;;;;2.05;1.02;;;;;;;20.40;100.00;98804.59;1680741;83;28109;-87
2022/07/09 08:10:49;;;;;;;1.05;0.60;;;;;;;20.52;100.00;98801.64;1675676;83;28095;-87
2022/07/09 08:13:16;;;;;;;1.07;0.70;;;;;;;20.75;100.00;98805.38;1674072;83;28267;-87
2022/07/09 08:15:42;;;;;;;1.05;0.50;;;;;;;20.87;100.00;98806.75;1637596;85;28086;-87
2022/07/09 08:18:12;;;;;;;1.65;0.53;;;;;;;20.89;100.00;98802.11;1681434;83;28131;-87
2022/07/09 08:20:37;;;;;;;2.77;0.65;;;;;;;20.87;100.00;98808.08;1692023;82;28092;-87
2022/07/09 08:23:03;;;;;;;1.82;0.80;;;;;;;20.88;100.00;98805.76;1644322;85;27999;-86
2022/07/09 08:25:30;;;;;;;2.90;0.62;;;;;;;20.90;100.00;98806.41;1698444;83;28079;-86
2022/07/09 08:27:56;;;;;;;1.27;0.70;;;;;;;20.89;100.00;98797.59;1697452;82;28135;-87
2022/07/09 08:30:22;;;;;;;2.75;1.00;;;;;;;20.89;100.00;98795.45;1696168;82;28095;-86
2022/07/09 08:32:48;;;;;;;1.55;0.65;;;;;;;20.85;100.00;98792.27;1657353;85;28081;-86
2022/07/09 08:35:14;;;;;;;1.72;0.80;;;;;;;20.85;100.00;98794.09;1697202;83;28098;-86
2022/07/09 08:37:40;;;;;;;1.37;0.80;;;;;;;20.82;100.00;98791.78;1694145;82;28199;-86
2022/07/09 08:40:08;;;;;;;2.92;0.70;;;;;;;20.81;100.00;98784.78;1700450;82;41872;-86
2022/07/09 08:42:34;;;;;;;1.12;0.70;;;;;;;20.76;100.00;98785.77;1687617;83;28110;-86
2022/07/09 08:45:01;;;;;;;3.22;0.80;;;;;;;20.73;100.00;98780.80;1695962;82;28046;-86
2022/07/09 08:47:29;;;;;;;2.42;0.70;;;;;;;20.75;100.00;98779.62;1691453;83;28193;-87
2022/07/09 08:50:02;;;;;;;2.12;1.42;;;;;;;20.84;100.00;98780.45;1692029;83;27996;-86
2022/07/09 08:52:29;;;;;;;1.70;0.70;;;;;;;20.96;100.00;98781.81;1690916;83;28220;-87
2022/07/09 08:54:55;;;;;;;0.95;0.80;;;;;;;21.03;100.00;98782.83;1654031;84;28109;-87
2022/07/09 08:57:21;;;;;;;2.95;0.82;;;;;;;20.99;100.00;98787.31;1690389;82;28088;-86
2022/07/09 08:59:47;;;;;;;2.55;0.88;;;;;;;21.04;100.00;98791.16;1657320;84;28451;-86
2022/07/09 09:02:14;;;;;;;1.45;0.88;;;;;;;21.15;100.00;98783.38;1654287;84;28087;-86
2022/07/09 09:04:41;;;;;;;2.65;0.80;;;;;;;21.27;100.00;98774.87;1696193;83;28120;-86
2022/07/09 09:07:22;;;;;;;2.70;1.25;;;;;;;21.42;100.00;98780.38;1655518;84;28109;-87
2022/07/09 09:09:49;;;;;;;1.32;0.93;;;;;;;21.47;100.00;98776.72;1653011;84;35688;-87
2022/07/09 09:12:17;;;;;;;1.32;0.70;;;;;;;21.44;100.00;98769.57;1693952;83;28095;-87
2022/07/09 09:14:49;;;;;;;3.95;1.00;;;;;;;21.22;100.00;98769.75;1689955;83;28209;-87
2022/07/09 09:17:19;;;;;;;1.60;0.93;;;;;;;21.01;100.00;98771.50;1647740;84;28103;-87
2022/07/09 09:19:45;;;;;;;1.77;0.82;;;;;;;20.99;100.00;98769.53;1695242;81;28073;-87
2022/07/09 09:22:17;;;;;;;1.37;0.62;;;;;;;21.11;100.00;98758.86;1705445;82;28125;-87
2022/07/09 09:24:50;;;;;;;3.12;1.00;;;;;;;21.31;100.00;98762.08;1697261;82;28202;-87
2022/07/09 09:27:16;;;;;;;6.22;1.02;;;;;;;21.25;100.00;98766.23;1690784;83;28157;-87
2022/07/09 09:29:52;;;;;;;1.72;0.72;;;;;;;21.30;100.00;98765.73;1692587;83;28083;-87
2022/07/09 09:32:24;;;;;;;3.77;1.37;;;;;;;21.47;100.00;98757.23;1696005;83;28165;-87
2022/07/09 09:34:51;;;;;;;2.47;1.20;;;;;;;21.60;100.00;98756.23;1692565;83;28043;-86
2022/07/09 09:37:29;;;;;;;3.00;0.90;;;;;;;21.68;100.00;98760.20;1692834;83;28083;-87
2022/07/09 09:39:55;;;;;;;4.15;1.20;;;;;;;21.77;100.00;98758.34;1691664;81;28102;-87
2022/07/09 09:42:24;;;;;;;4.53;1.07;;;;;;;21.78;100.00;98754.19;1695711;83;28004;-87
2022/07/09 09:44:50;;;;;;;2.25;1.00;;;;;;;21.80;100.00;98751.36;1695489;83;28141;-87
2022/07/09 09:47:22;;;;;;;4.53;1.52;;;;;;;21.82;100.00;98749.36;1697127;82;28158;-87
2022/07/09 09:49:53;;;;;;;1.42;0.90;;;;;;;21.89;100.00;98748.48;1692521;83;28172;-87
2022/07/09 09:52:20;;;;;;;1.82;1.10;;;;;;;21.92;100.00;98746.83;1690314;83;28160;-87
2022/07/09 09:54:48;;;;;;;2.87;1.42;;;;;;;21.89;100.00;98741.00;1650499;84;28106;-87
2022/07/09 09:57:16;;;;;;;2.72;1.45;;;;;;;21.92;100.00;98738.00;1647688;84;28183;-86
2022/07/09 09:59:45;;;;;;;5.33;1.92;;;;;;;21.97;100.00;98741.02;1673749;83;28050;-87
2022/07/09 10:02:13;;;;;;;3.17;1.80;;;;;;;22.01;100.00;98744.50;1692351;82;28161;-87
2022/07/09 10:04:42;;;;;;;3.87;2.33;;;;;;;22.03;100.00;98744.33;1692808;83;28085;-86
2022/07/09 10:07:11;;;;;;;3.25;1.95;;;;;;;21.96;100.00;98734.02;1691152;82;28165;-87
2022/07/09 10:09:58;;;;;;;3.62;2.10;;;;;;;21.92;100.00;98732.67;1692842;83;28361;-87
2022/07/09 10:12:36;;;;;;;2.75;1.45;;;;;;;21.97;100.00;98727.19;1690397;82;28075;-86
2022/07/09 10:15:21;;;;;;;3.95;1.82;;;;;;;22.07;100.00;98729.64;1688889;82;28162;-87
2022/07/09 10:17:48;;;;;;;3.47;1.50;;;;;;;22.13;100.00;98724.96;1691051;83;28102;-87
2022/07/09 10:20:15;;;;;;;3.08;1.70;;;;;;;22.25;100.00;98722.75;1692164;83;28495;-87
2022/07/09 10:22:50;;;;;;;3.65;2.00;;;;;;;22.34;100.00;98707.86;1686644;82;28095;-86
2022/07/09 10:25:25;;;;;;;4.12;2.00;;;;;;;22.40;100.00;98701.83;1658114;84;28165;-86
2022/07/09 10:27:52;;;;;;;3.47;1.95;;;;;;;22.50;100.00;98695.77;1690595;83;28105;-86
2022/07/09 10:30:24;;;;;;;3.15;1.75;;;;;;;22.56;100.00;98700.89;1696190;83;28553;-88
2022/07/09 10:33:05;;;;;;;1.87;1.35;;;;;;;22.53;100.00;98695.89;1686265;82;28131;-87
2022/07/09 10:35:33;;;;;;;6.15;1.60;;;;;;;22.55;99.88;98695.23;1689458;83;28170;-87
2022/07/09 10:38:01;;;;;;;2.85;1.70;;;;;;;22.67;99.79;98699.66;1691028;82;28110;-87
2022/07/09 10:40:32;;;;;;;4.12;2.30;;;;;;;22.63;98.97;98695.19;1691864;83;28068;-87
2022/07/09 10:43:00;;;;;;;1.90;1.35;;;;;;;22.56;98.23;98695.56;1699098;83;28174;-87
2022/07/09 10:45:33;;;;;;;5.25;1.80;;;;;;;22.67;98.06;98692.48;1688942;83;28142;-87
2022/07/09 10:48:02;;;;;;;2.58;1.80;;;;;;;22.79;98.13;98688.44;1660390;84;28083;-87
2022/07/09 10:50:31;;;;;;;3.35;1.70;;;;;;;22.88;97.98;98687.86;1657873;83;28130;-87
2022/07/09 10:52:59;;;;;;;3.42;1.70;;;;;;;22.92;97.71;98685.98;1689460;82;28150;-87
2022/07/09 10:55:27;;;;;;;2.37;1.50;;;;;;;22.94;97.40;98685.30;1699515;82;28084;-87
2022/07/09 10:57:55;;;;;;;3.22;1.95;;;;;;;22.95;97.06;98676.80;1699494;83;28082;-87
2022/07/09 11:00:25;;;;;;;4.70;1.90;;;;;;;22.98;96.52;98679.59;1659984;85;28107;-87
2022/07/09 11:03:05;;;;;;;3.30;1.40;;;;;;;22.99;96.19;98675.92;1692205;83;28111;-87
2022/07/09 11:05:34;;;;;;;4.62;1.60;;;;;;;23.02;95.98;98668.38;1696655;83;28011;-87
2022/07/09 11:08:11;;;;;;;4.05;1.50;;;;;;;23.05;95.75;98669.87;1691608;83;28165;-87
2022/07/09 11:10:43;;;;;;;3.95;1.27;;;;;;;22.97;95.16;98667.25;1695404;83;28165;-86
2022/07/09 11:13:10;;;;;;;2.55;1.30;;;;;;;23.04;95.01;98658.86;1693101;82;28094;-86
2022/07/09 11:15:37;;;;;;;1.57;1.20;;;;;;;23.08;94.61;98650.80;1694708;83;28159;-87
2022/07/09 11:18:06;;;;;;;1.70;0.98;;;;;;;23.05;94.17;98652.52;1691290;83;28088;-86
2022/07/09 11:20:44;;;;;;;2.08;1.17;;;;;;;23.11;93.54;98646.45;1699704;83;28169;-86
2022/07/09 11:23:20;;;;;;;3.17;1.05;;;;;;;23.20;92.89;98648.85;1702263;83;28075;-87
2022/07/09 11:25:46;;;;;;;1.42;0.90;;;;;;;23.16;91.97;98648.07;1704993;83;28159;-87
2022/07/09 11:28:20;;;;;;;3.15;1.20;;;;;;;23.14;91.00;98651.41;1694010;83;28094;-87
2022/07/09 11:31:02;;;;;;;1.77;0.90;;;;;;;23.18;90.36;98646.06;1689589;82;28160;-87